Flight Track Log - Related Links

Times and Time Zones

All times are in EDT time to prevent confusion due to time zone crossing. See the SWA1462 flight status page for this flight to view local times or setup timezone preferences in your user account.

Time Position Orientation Groundspeed Altitude Reporting Facility
EDT Latitude Longitude Course Direction KTS MPH feet Rate Location/Type
Mon 01:55:09 PM 40.8161 -112.0194 314° West 160 184 6,100  Level Salt Lake Center
Mon 01:55:40 PM 40.8197 -112.0683 276° West 196 226 7,300 1,645 Climbing Salt Lake Center
Mon 01:56:11 PM 40.8253 -112.0942 286° West 208 239 7,800 2,609 Climbing Salt Lake Center
Mon 01:57:12 PM 40.8094 -112.2178 260° West 294 338 11,300 3,415 Climbing Salt Lake Center
Mon 01:58:14 PM 40.7356 -112.2778 212° Southwest 319 367 14,800 4,016 Climbing Salt Lake Center
Mon 01:59:16 PM 40.6483 -112.2967 189° South 312 359 19,600 3,823 Climbing Salt Lake Center
Mon 02:00:18 PM 40.5644 -112.3097 187° South 305 351 22,700 1,645 Climbing Salt Lake Center
Mon 02:01:20 PM 40.4744 -112.3103 180° South 324 373 23,000 145 Climbing Salt Lake Center
Mon 02:02:22 PM 40.3847 -112.3122 181° South 322 371 23,000  Level Salt Lake Center
Mon 02:03:24 PM 40.2783 -112.3150 181° South 318 366 23,000  Level Salt Lake Center
Mon 02:04:26 PM 40.1894 -112.3158 180° South 319 367 23,000  Level Salt Lake Center
Mon 02:05:27 PM 40.0986 -112.3186 181° South 325 374 23,000  Level Salt Lake Center
Mon 02:06:29 PM 40.0094 -112.3200 181° South 321 369 23,000 484 Level Salt Lake Center
Mon 02:07:31 PM 39.9139 -112.3228 181° South 348 400 24,000 1,742 Climbing Salt Lake Center
Mon 02:08:33 PM 39.8125 -112.3247 181° South 362 417 26,600 2,419 Climbing Salt Lake Center
Mon 02:09:35 PM 39.6842 -112.3289 181° South 385 443 29,000 2,177 Climbing Salt Lake Center
Mon 02:10:37 PM 39.5733 -112.3303 181° South 396 456 31,100 1,742 Climbing Salt Lake Center
Mon 02:11:39 PM 39.4633 -112.3325 181° South 398 458 32,600 919 Climbing Salt Lake Center
Mon 02:12:41 PM 39.3542 -112.3356 181° South 393 452 33,000 194 Climbing Salt Lake Center
Mon 02:13:43 PM 39.2456 -112.3386 181° South 390 449 33,000  Level Salt Lake Center
Mon 02:14:45 PM 39.1236 -112.3406 181° South 395 455 33,000  Level Salt Lake Center
Mon 02:15:47 PM 39.0158 -112.3422 181° South 390 449 33,000  Level Salt Lake Center
Mon 02:16:49 PM 38.9078 -112.3456 181° South 388 447 33,000  Level Salt Lake Center
Mon 02:17:50 PM 38.7981 -112.3478 181° South 392 451 33,000  Level Salt Lake Center
Mon 02:18:52 PM 38.6886 -112.3506 181° South 395 455 33,000  Level Salt Lake Center
Mon 02:19:54 PM 38.5556 -112.3539 181° South 398 458 33,000  Level Salt Lake Center
Mon 02:20:56 PM 38.4447 -112.3556 181° South 399 459 33,000  Level Salt Lake Center
Mon 02:21:58 PM 38.3342 -112.3594 182° South 399 459 33,000  Level Salt Lake Center
Mon 02:23:00 PM 38.2231 -112.3608 181° South 399 459 33,000  Level Salt Lake Center
Mon 02:24:02 PM 38.1108 -112.3636 181° South 401 461 33,000  Level Salt Lake Center
Mon 02:25:04 PM 37.9975 -112.3650 181° South 405 466 33,000  Level Salt Lake Center
Mon 02:26:06 PM 37.8842 -112.3664 181° South 405 466 33,000  Level Salt Lake Center
Mon 02:27:08 PM 37.7481 -112.3697 181° South 405 466 33,000  Level Salt Lake Center
Mon 02:28:09 PM 37.6358 -112.3708 180° South 404 465 33,000  Level Salt Lake Center
Mon 02:29:11 PM 37.5233 -112.3725 181° South 402 463 33,000  Level Salt Lake Center
Mon 02:30:13 PM 37.4106 -112.3747 181° South 402 463 33,000  Level Salt Lake Center
Mon 02:31:03 PM 37.3194 -112.3753 180° South 401 461 33,000  Level Los Angeles Center
Mon 02:32:05 PM 37.2078 -112.3783 181° South 401 461 33,000  Level Los Angeles Center
Mon 02:33:07 PM 37.0956 -112.3806 181° South 401 461 33,000  Level Los Angeles Center
Mon 02:34:09 PM 36.9594 -112.3825 181° South 408 470 33,000  Level Los Angeles Center
Mon 02:35:12 PM 36.8464 -112.3856 181° South 407 468 33,000  Level Los Angeles Center
Mon 02:36:14 PM 36.7342 -112.3875 181° South 404 465 33,000  Level Los Angeles Center
Mon 02:37:16 PM 36.6239 -112.3892 181° South 398 458 33,000  Level Los Angeles Center
Mon 02:38:18 PM 36.5133 -112.3931 182° South 397 457 33,000  Level Los Angeles Center
Mon 02:39:20 PM 36.4031 -112.3939 180° South 396 456 33,000  Level Los Angeles Center
Mon 02:40:22 PM 36.2731 -112.3975 181° South 390 449 33,000  Level Los Angeles Center
Mon 02:41:24 PM 36.1647 -112.4042 183° South 389 448 33,000  Level Los Angeles Center
Mon 02:42:26 PM 36.0533 -112.4103 183° South 397 457 33,000 -353 Level Los Angeles Center
Mon 02:43:40 PM 35.9433 -112.4164 183° South 396 456 32,200 -1,765 Descending Los Angeles Center
Mon 02:44:42 PM 35.8006 -112.4206 181° South 396 456 29,000 -1,548 Descending Los Angeles Center
Mon 02:45:44 PM 35.6925 -112.4267 183° South 392 451 29,000  Level Los Angeles Center
Mon 02:46:46 PM 35.5822 -112.4325 182° South 393 452 29,000  Level Los Angeles Center
Mon 02:47:48 PM 35.4717 -112.4372 182° South 396 456 29,000  Level Los Angeles Center
Mon 02:48:50 PM 35.3617 -112.4317 178° South 394 453 29,000 -435 Level Los Angeles Center
Mon 02:49:52 PM 35.2514 -112.4058 169° South 398 458 28,100 -919 Descending Los Angeles Center
Mon 02:50:54 PM 35.1475 -112.3839 170° South 378 435 27,100 -532 Descending Los Angeles Center
Mon 02:51:56 PM 35.0333 -112.3603 170° South 348 400 27,000 -387 Descending Los Angeles Center
Mon 02:52:58 PM 34.9386 -112.3386 169° South 346 398 26,300 -727 Descending Los Angeles Center
Mon 02:54:08 PM 34.8239 -112.3150 170° South 346 398 25,400 -916 Descending Albuquerque Center
Mon 02:55:09 PM 34.7378 -112.2953 169° South 342 394 24,300 -683 Descending Albuquerque Center
Mon 02:56:11 PM 34.6436 -112.2744 170° South 343 395 24,000 -1,113 Descending Albuquerque Center
Mon 02:57:13 PM 34.5481 -112.2536 170° South 347 399 22,000 -1,935 Descending Albuquerque Center
Mon 02:58:15 PM 34.4314 -112.2264 169° South 356 410 20,000 -976 Descending Albuquerque Center
Mon 02:59:16 PM 34.3386 -112.2022 168° South 347 399 20,000 -390 Level Albuquerque Center
Mon 03:00:18 PM 34.2497 -112.1789 168° South 333 383 19,200 -1,500 Descending Albuquerque Center
Mon 03:01:20 PM 34.1575 -112.1550 168° South 340 391 16,900 -1,742 Descending Albuquerque Center
Mon 03:02:22 PM 34.0661 -112.1311 168° South 337 388 15,600 -1,317 Descending Albuquerque Center
Mon 03:03:23 PM 33.9856 -112.0906 157° South 319 367 14,200 -1,463 Descending Albuquerque Center
Mon 03:04:25 PM 33.8975 -112.0667 167° South 281 323 12,600 -1,500 Descending Albuquerque Center
Mon 03:05:27 PM 33.8239 -112.0728 184° South 275 316 11,100 -1,268 Descending Albuquerque Center
Mon 03:06:28 PM 33.7528 -112.0467 163° South 270 311 10,000 -537 Descending Albuquerque Center
Mon 03:07:30 PM 33.6828 -112.0239 165° South 263 303 10,000 -48 Level Albuquerque Center
Mon 03:08:32 PM 33.6131 -112.0133 173° South 258 297 9,900 -488 Descending Albuquerque Center
Mon 03:09:33 PM 33.5419 -112.0086 177° South 256 295 9,000 -439 Descending Albuquerque Center
Mon 03:10:35 PM 33.4611 -112.0025 176° South 244 281 9,000 -194 Level Albuquerque Center
Mon 03:11:37 PM 33.4147 -112.0206 198° South 194 223 8,600 -878 Descending Albuquerque Center
Mon 03:12:38 PM 33.3664 -112.0308 190° South 189 217 7,200 -780 Descending Albuquerque Center
Mon 03:13:40 PM 33.3536 -111.9681 104° East 211 243 7,000 -195 Descending Albuquerque Center
Mon 03:14:41 PM 33.3556 -111.8956 88° East 219 252 6,800 -780 Descending Albuquerque Center
Mon 03:15:43 PM 33.3586 -111.8211 87° East 225 259 5,400 -1,258 Descending Albuquerque Center
Mon 03:16:45 PM 33.4047 -111.8150 North 210 242 4,200 -1,171 Descending Albuquerque Center
Mon 03:17:46 PM 33.4289 -111.8742 296° West 171 197 3,000 -878 Descending Albuquerque Center
Mon 03:18:48 PM 33.4286 -111.9278 270° West 160 184 2,400 -677 Descending Albuquerque Center
Mon 03:19:50 PM 33.4297 -111.9750 272° West 144 166 1,600 -634 Descending Albuquerque Center
Mon 03:20:51 PM 33.4278 -112.0172 267° West 141 162 1,100 -492 Descending Albuquerque Center

Login

Don't have an account? Register now (free) for customized features, flight alerts, and more!